Time;durP1;ratioP1;P1;durP2;ratioP2;P2;SDS_P1;SDS_P2;PMS_P1;PMS_P2;Temp;Humidity;BMP_temperature;BMP_pressure;BME280_temperature;BME280_humidity;BME280_pressure;Samples;Min_cycle;Max_cycle;Signal;HPM_P1;HPM_P2
2021/01/19 00:01:36;;;;;;;8.07;5.35;;;;;;;-0.96;77.23;97146.69;5051563;28;20049;-71
2021/01/19 00:04:02;;;;;;;9.70;5.25;;;;;;;-0.97;77.16;97137.31;5055921;28;20045;-72
2021/01/19 00:06:28;;;;;;;10.00;5.00;;;;;;;-0.97;77.27;97136.53;5057086;28;20052;-71
2021/01/19 00:08:54;;;;;;;7.75;4.45;;;;;;;-0.99;76.72;97134.06;5046483;28;20425;-72
2021/01/19 00:11:20;;;;;;;5.97;4.40;;;;;;;-0.99;77.13;97130.69;5057010;28;20039;-71
2021/01/19 00:13:47;;;;;;;7.82;4.40;;;;;;;-0.99;77.02;97125.53;5055094;28;20500;-72
2021/01/19 00:16:13;;;;;;;7.72;4.80;;;;;;;-0.99;77.07;97126.34;5056352;28;20057;-72
2021/01/19 00:18:39;;;;;;;8.95;4.20;;;;;;;-0.98;77.22;97122.03;5038713;28;20497;-72
2021/01/19 00:21:06;;;;;;;7.60;4.40;;;;;;;-0.95;77.15;97120.00;5047794;28;20032;-72
2021/01/19 00:23:32;;;;;;;5.97;4.18;;;;;;;-0.96;77.03;97115.81;5051597;28;20457;-72
2021/01/19 00:25:58;;;;;;;7.57;4.55;;;;;;;-0.96;76.96;97112.41;5056634;28;20413;-72
2021/01/19 00:28:24;;;;;;;7.20;4.60;;;;;;;-0.97;77.00;97113.34;5056469;28;20033;-72
2021/01/19 00:30:51;;;;;;;7.80;5.15;;;;;;;-0.96;76.74;97120.94;5055627;28;20053;-72
2021/01/19 00:33:17;;;;;;;9.52;4.72;;;;;;;-0.96;76.97;97123.53;5054952;28;20045;-72
2021/01/19 00:35:43;;;;;;;9.93;4.43;;;;;;;-0.95;76.82;97112.28;5047350;28;20056;-72
2021/01/19 00:38:09;;;;;;;13.43;5.10;;;;;;;-0.95;76.72;97104.53;5056090;28;20048;-72
2021/01/19 00:40:36;;;;;;;6.43;4.00;;;;;;;-0.95;76.94;97103.75;5038013;28;20516;-72
2021/01/19 00:43:02;;;;;;;7.47;5.10;;;;;;;-0.92;77.04;97098.34;5055734;28;20037;-72
2021/01/19 00:45:29;;;;;;;6.80;4.70;;;;;;;-0.93;76.90;97097.50;5055498;28;20049;-72
2021/01/19 00:47:55;;;;;;;5.93;4.20;;;;;;;-0.92;76.67;97093.19;5054764;28;20056;-72
2021/01/19 00:50:22;;;;;;;9.40;4.60;;;;;;;-0.94;76.75;97095.09;5055263;28;20059;-72
2021/01/19 00:52:48;;;;;;;8.20;4.85;;;;;;;-0.96;76.68;97097.78;5038173;28;20044;-71
2021/01/19 00:55:15;;;;;;;8.38;4.60;;;;;;;-0.96;76.66;97094.41;5055132;28;20079;-72
2021/01/19 00:57:45;;;;;;;6.15;4.20;;;;;;;-0.99;76.51;97086.91;5054524;28;20413;-72
2021/01/19 01:00:13;;;;;;;6.18;4.13;;;;;;;-1.00;76.57;97085.31;5037886;28;20063;-72
2021/01/19 01:02:40;;;;;;;5.97;3.88;;;;;;;-1.03;76.47;97084.63;5052646;28;20045;-72
2021/01/19 01:05:09;;;;;;;6.65;4.05;;;;;;;-1.04;76.51;97087.31;5054841;28;20382;-72
2021/01/19 01:07:37;;;;;;;7.82;4.25;;;;;;;-1.04;76.76;97077.00;5054566;28;20049;-72
2021/01/19 01:10:06;;;;;;;8.07;4.80;;;;;;;-1.05;76.50;97081.34;5054561;28;20064;-71
2021/01/19 01:12:33;;;;;;;7.25;4.18;;;;;;;-1.05;76.52;97078.78;5038148;28;20036;-72
2021/01/19 01:14:59;;;;;;;7.78;4.18;;;;;;;-1.05;76.44;97085.66;5054038;28;20045;-72
2021/01/19 01:17:25;;;;;;;6.57;4.13;;;;;;;-1.06;76.56;97084.06;5053517;28;20056;-72
2021/01/19 01:19:51;;;;;;;7.10;4.10;;;;;;;-1.10;76.29;97091.22;5054781;28;20061;-72
2021/01/19 01:22:18;;;;;;;7.95;4.40;;;;;;;-1.08;76.52;97093.66;5055025;28;20049;-72
2021/01/19 01:24:45;;;;;;;8.20;4.70;;;;;;;-1.12;76.20;97072.50;5052792;28;20049;-72
2021/01/19 01:27:11;;;;;;;9.55;5.18;;;;;;;-1.21;76.02;97077.63;5055477;28;20049;-73
2021/01/19 01:29:38;;;;;;;6.65;4.40;;;;;;;-1.29;76.51;97080.81;5054186;28;20057;-72
2021/01/19 01:32:04;;;;;;;8.05;4.63;;;;;;;-1.31;76.66;97078.38;5053675;28;20041;-72
2021/01/19 01:34:31;;;;;;;10.02;5.53;;;;;;;-1.29;76.80;97073.91;5054410;28;20044;-72
2021/01/19 01:36:57;;;;;;;9.82;4.70;;;;;;;-1.29;76.83;97068.78;5053370;28;20053;-72
2021/01/19 01:39:23;;;;;;;10.40;4.90;;;;;;;-1.27;76.46;97068.66;5053976;28;20045;-72
2021/01/19 01:41:49;;;;;;;7.07;4.95;;;;;;;-1.30;76.64;97068.88;5037637;28;20044;-72
2021/01/19 01:44:15;;;;;;;7.05;4.35;;;;;;;-1.29;76.78;97076.50;5054263;28;20394;-72
2021/01/19 01:46:42;;;;;;;6.18;5.07;;;;;;;-1.28;76.64;97067.00;5053975;28;20048;-72
2021/01/19 01:49:09;;;;;;;8.57;4.50;;;;;;;-1.26;76.45;97063.38;5055516;28;20033;-72
2021/01/19 01:51:35;;;;;;;10.23;4.70;;;;;;;-1.25;76.72;97053.91;5053199;28;20079;-72
2021/01/19 01:54:02;;;;;;;8.13;4.68;;;;;;;-1.21;76.46;97049.31;5055092;28;20041;-72
2021/01/19 01:56:29;;;;;;;6.97;4.47;;;;;;;-1.17;76.65;97053.25;5036204;28;20465;-72
2021/01/19 01:58:55;;;;;;;10.27;4.57;;;;;;;-1.15;76.45;97041.09;5053720;28;20068;-72
2021/01/19 02:01:23;;;;;;;9.98;5.15;;;;;;;-1.15;76.47;97038.50;5054814;28;20037;-72
2021/01/19 02:03:50;;;;;;;8.05;4.70;;;;;;;-1.13;76.48;97036.63;5050241;28;20042;-72
2021/01/19 02:06:16;;;;;;;10.07;4.85;;;;;;;-1.12;76.60;97035.66;5052858;28;20052;-73
2021/01/19 02:08:53;;;;;;;11.48;5.05;;;;;;;-1.12;75.99;97033.91;5052301;28;20048;-72
2021/01/19 02:11:23;;;;;;;10.20;4.95;;;;;;;-1.19;76.27;97030.22;5054036;28;20492;-72
2021/01/19 02:14:01;;;;;;;9.88;5.07;;;;;;;-1.26;76.04;97018.81;5053936;28;20056;-72
2021/01/19 02:16:49;;;;;;;8.10;5.70;;;;;;;-1.38;75.89;97014.72;5035623;28;20477;-71
2021/01/19 02:19:53;;;;;;;8.10;4.78;;;;;;;-1.43;76.26;97009.94;5029386;28;20020;-72
2021/01/19 02:22:39;;;;;;;8.38;4.55;;;;;;;-1.41;76.50;97013.19;5053192;28;20052;-72
2021/01/19 02:25:30;;;;;;;7.88;4.28;;;;;;;-1.44;76.20;97003.97;5036954;28;20037;-72
2021/01/19 02:27:59;;;;;;;9.30;4.93;;;;;;;-1.43;76.54;96989.34;5053758;28;20041;-72
2021/01/19 02:30:45;;;;;;;8.27;4.50;;;;;;;-1.44;76.42;96990.31;5053968;28;20033;-72
2021/01/19 02:33:14;;;;;;;8.00;4.65;;;;;;;-1.53;76.25;96989.34;5046894;28;20041;-72
2021/01/19 02:35:56;;;;;;;11.90;5.38;;;;;;;-1.58;76.63;96986.31;5052540;28;20041;-72
2021/01/19 02:38:52;;;;;;;9.65;4.60;;;;;;;-1.58;76.64;96988.88;5053278;28;20041;-72
2021/01/19 02:41:21;;;;;;;8.48;4.85;;;;;;;-1.60;76.63;96985.63;5053128;28;20033;-72
2021/01/19 02:43:56;;;;;;;10.93;5.22;;;;;;;-1.64;76.43;96982.53;5046029;28;20052;-72
2021/01/19 02:46:25;;;;;;;7.95;4.40;;;;;;;-1.66;76.59;96975.84;5033579;28;20036;-72
2021/01/19 02:48:53;;;;;;;9.75;4.93;;;;;;;-1.66;76.59;96974.13;5048147;28;20051;-72
2021/01/19 02:51:21;;;;;;;8.43;5.15;;;;;;;-1.60;76.78;96969.38;5052894;28;20048;-71
2021/01/19 02:53:53;;;;;;;11.98;5.32;;;;;;;-1.54;76.85;96966.31;5052743;28;20045;-73
2021/01/19 02:56:43;;;;;;;7.90;4.85;;;;;;;-1.51;76.94;96964.28;5042007;28;20366;-71
2021/01/19 02:59:09;;;;;;;7.93;4.72;;;;;;;-1.52;76.78;96967.00;5050709;28;20528;-72
2021/01/19 03:01:43;;;;;;;7.57;4.30;;;;;;;-1.52;76.84;96967.78;5048137;28;20036;-71
2021/01/19 03:04:11;;;;;;;8.27;4.68;;;;;;;-1.49;76.78;96956.44;5025579;28;20033;-72
2021/01/19 03:06:38;;;;;;;8.73;4.85;;;;;;;-1.48;76.57;96953.72;5052653;28;20470;-71
2021/01/19 03:09:05;;;;;;;8.80;4.47;;;;;;;-1.47;76.73;96945.09;5035515;28;20041;-72
2021/01/19 03:11:34;;;;;;;8.35;5.35;;;;;;;-1.44;76.93;96947.38;5052654;28;20060;-72
2021/01/19 03:14:01;;;;;;;8.13;4.85;;;;;;;-1.40;76.99;96962.56;5042749;28;20044;-72
2021/01/19 03:16:27;;;;;;;8.95;5.30;;;;;;;-1.33;76.95;96958.53;5049628;28;20040;-71
2021/01/19 03:18:54;;;;;;;9.70;5.43;;;;;;;-1.32;76.75;96948.13;5053613;28;20049;-71
2021/01/19 03:21:20;;;;;;;8.73;4.80;;;;;;;-1.41;76.67;96946.31;5052069;28;20056;-71
2021/01/19 03:23:46;;;;;;;9.65;4.88;;;;;;;-1.46;76.63;96941.56;5053456;28;20398;-71
2021/01/19 03:26:12;;;;;;;8.90;5.10;;;;;;;-1.49;76.59;96939.25;5051376;28;20053;-71
2021/01/19 03:28:38;;;;;;;9.57;5.38;;;;;;;-1.52;76.91;96936.94;5034316;28;20049;-72
2021/01/19 03:31:05;;;;;;;9.02;5.43;;;;;;;-1.55;76.94;96936.41;5053219;28;20041;-72
2021/01/19 03:33:32;;;;;;;9.15;5.20;;;;;;;-1.58;76.69;96940.03;5051921;28;20041;-72
2021/01/19 03:35:58;;;;;;;12.00;5.97;;;;;;;-1.60;76.72;96925.66;5052642;28;20041;-72
2021/01/19 03:38:24;;;;;;;9.43;5.65;;;;;;;-1.60;76.83;96928.25;5052469;28;20052;-71
2021/01/19 03:40:51;;;;;;;12.73;5.80;;;;;;;-1.62;76.96;96925.78;5053455;28;20037;-71
2021/01/19 03:43:17;;;;;;;7.78;5.07;;;;;;;-1.64;76.95;96927.69;5051810;28;20041;-71
2021/01/19 03:45:43;;;;;;;10.77;6.60;;;;;;;-1.66;76.87;96932.97;5051375;28;20056;-72
2021/01/19 03:48:10;;;;;;;11.15;6.28;;;;;;;-1.66;76.91;96930.41;5050611;28;20056;-71
2021/01/19 03:50:36;;;;;;;9.90;6.07;;;;;;;-1.65;76.86;96944.88;5051996;28;20049;-72
2021/01/19 03:53:03;;;;;;;11.35;6.25;;;;;;;-1.62;76.91;96941.22;5051741;28;20508;-72
2021/01/19 03:55:30;;;;;;;11.77;5.95;;;;;;;-1.65;76.74;96921.72;5052257;28;20037;-72
2021/01/19 03:57:58;;;;;;;10.90;6.55;;;;;;;-1.63;76.66;96916.47;5047111;28;20485;-72
2021/01/19 04:00:24;;;;;;;10.50;6.30;;;;;;;-1.66;76.75;96914.97;5048893;28;20048;-72
2021/01/19 04:02:51;;;;;;;10.45;5.88;;;;;;;-1.66;76.81;96919.28;5051463;28;20045;-72
2021/01/19 04:05:17;;;;;;;10.98;7.15;;;;;;;-1.69;76.71;96901.53;5051537;28;20053;-72
2021/01/19 04:07:44;;;;;;;10.70;6.00;;;;;;;-1.72;76.84;96901.78;5052305;28;20049;-72
2021/01/19 04:10:13;;;;;;;11.45;6.07;;;;;;;-1.74;76.99;96901.09;5052506;28;20045;-71
2021/01/19 04:12:41;;;;;;;11.35;6.72;;;;;;;-1.80;76.79;96899.09;5047317;28;20048;-72
2021/01/19 04:15:08;;;;;;;11.18;6.10;;;;;;;-1.87;76.76;96896.19;5052450;28;20057;-71
2021/01/19 04:17:34;;;;;;;11.45;6.82;;;;;;;-1.92;76.85;96896.59;5052385;28;20044;-71
2021/01/19 04:20:00;;;;;;;10.20;6.15;;;;;;;-1.91;76.90;96882.81;5053304;28;20039;-71
2021/01/19 04:22:27;;;;;;;10.85;6.70;;;;;;;-1.89;77.02;96878.34;5052056;28;20052;-74
2021/01/19 04:24:53;;;;;;;9.65;6.03;;;;;;;-1.90;77.26;96875.91;5051905;28;20064;-72
2021/01/19 04:27:19;;;;;;;9.48;6.38;;;;;;;-1.93;77.07;96874.41;5039346;28;20048;-71
2021/01/19 04:29:46;;;;;;;12.75;6.97;;;;;;;-1.95;77.08;96871.16;5051711;28;20048;-71
2021/01/19 04:32:13;;;;;;;10.50;6.28;;;;;;;-1.94;76.97;96870.19;5034655;28;20049;-72
2021/01/19 04:34:39;;;;;;;10.75;6.25;;;;;;;-1.92;76.93;96877.78;5053008;28;20059;-72
2021/01/19 04:37:05;;;;;;;12.75;6.70;;;;;;;-1.95;76.75;96860.03;5053326;28;20044;-72
2021/01/19 04:39:32;;;;;;;13.60;6.95;;;;;;;-2.00;76.95;96854.47;5052414;28;20048;-72
2021/01/19 04:41:58;;;;;;;11.52;5.95;;;;;;;-2.03;77.17;96850.41;5055776;28;20041;-72
2021/01/19 04:44:26;;;;;;;15.40;6.82;;;;;;;-2.06;77.57;96850.66;5055350;28;20040;-71
2021/01/19 04:46:53;;;;;;;9.70;5.88;;;;;;;-2.07;77.55;96849.84;5055950;28;20044;-72
2021/01/19 04:49:20;;;;;;;15.35;6.72;;;;;;;-2.08;77.13;96842.25;5055868;28;20112;-72
2021/01/19 04:51:47;;;;;;;11.45;6.88;;;;;;;-2.11;77.34;96843.34;5049798;28;20405;-72
2021/01/19 04:54:18;;;;;;;13.55;6.65;;;;;;;-2.13;77.53;96845.22;5050295;28;20045;-72
2021/01/19 04:56:53;;;;;;;11.48;6.38;;;;;;;-2.15;77.32;96839.41;5055667;28;20040;-71
2021/01/19 04:59:24;;;;;;;10.32;6.70;;;;;;;-2.13;77.33;96841.84;5056261;28;20037;-71
2021/01/19 05:01:50;;;;;;;12.20;6.30;;;;;;;-2.08;77.44;96837.97;5038395;28;20037;-71
2021/01/19 05:04:40;;;;;;;13.80;6.57;;;;;;;-2.06;77.33;96842.94;5055461;28;20404;-72
2021/01/19 05:07:29;;;;;;;12.02;6.38;;;;;;;-2.12;77.29;96840.91;5032560;28;20512;-71
2021/01/19 05:10:12;;;;;;;15.45;7.25;;;;;;;-2.17;77.44;96836.16;5054659;28;20059;-72
2021/01/19 05:12:44;;;;;;;12.77;7.10;;;;;;;-2.18;76.99;96837.09;5042620;28;20053;-72
2021/01/19 05:15:12;;;;;;;12.45;7.32;;;;;;;-2.22;77.31;96840.88;5051150;28;20033;-72
2021/01/19 05:17:39;;;;;;;9.75;6.55;;;;;;;-2.22;77.31;96833.16;5033325;28;20040;-71
2021/01/19 05:20:10;;;;;;;14.75;7.10;;;;;;;-2.19;77.50;96834.66;5055551;28;20049;-72
2021/01/19 05:22:37;;;;;;;12.95;6.80;;;;;;;-2.21;77.12;96834.78;5049885;28;20037;-72
2021/01/19 05:25:05;;;;;;;12.48;7.07;;;;;;;-2.25;77.18;96823.97;5044911;28;20046;-72
2021/01/19 05:27:31;;;;;;;11.45;6.75;;;;;;;-2.22;77.39;96822.88;5052324;28;20040;-71
2021/01/19 05:30:05;;;;;;;9.82;6.57;;;;;;;-2.23;77.02;96818.66;5055249;28;20048;-71
2021/01/19 05:32:39;;;;;;;12.63;6.45;;;;;;;-2.25;77.49;96800.84;5054484;28;20041;-71
2021/01/19 05:35:17;;;;;;;12.05;6.82;;;;;;;-2.25;77.55;96797.44;5047693;28;20408;-71
2021/01/19 05:37:55;;;;;;;13.02;6.53;;;;;;;-2.25;77.62;96787.16;5049152;28;20397;-72
2021/01/19 05:40:22;;;;;;;12.52;6.43;;;;;;;-2.23;77.27;96782.72;5045418;28;20111;-72
2021/01/19 05:42:48;;;;;;;15.30;6.07;;;;;;;-2.18;77.38;96783.16;5055183;28;20048;-71
2021/01/19 05:45:14;;;;;;;13.45;6.60;;;;;;;-2.16;77.43;96773.56;5053587;28;20044;-71
2021/01/19 05:47:42;;;;;;;9.02;5.82;;;;;;;-2.13;77.36;96783.56;5054179;28;20112;-72
2021/01/19 05:50:12;;;;;;;10.18;6.72;;;;;;;-2.04;77.23;96784.53;5052511;28;20033;-72
2021/01/19 05:52:39;;;;;;;12.27;6.50;;;;;;;-2.09;77.17;96774.66;5052715;28;20047;-71
2021/01/19 05:55:06;;;;;;;9.95;6.25;;;;;;;-2.17;76.86;96774.47;5054985;28;20033;-71
2021/01/19 05:57:32;;;;;;;11.45;6.07;;;;;;;-2.23;76.97;96767.28;5054233;28;20405;-71
2021/01/19 06:00:01;;;;;;;11.48;5.88;;;;;;;-2.21;77.03;96769.75;5054108;28;20056;-71
2021/01/19 06:02:42;;;;;;;12.68;6.65;;;;;;;-2.25;76.67;96767.44;5053844;28;20029;-72
2021/01/19 06:05:13;;;;;;;12.77;6.30;;;;;;;-2.27;76.89;96768.50;5051339;28;20045;-71
2021/01/19 06:07:42;;;;;;;10.73;6.22;;;;;;;-2.27;77.21;96759.06;5049904;28;20052;-71
2021/01/19 06:10:11;;;;;;;9.65;5.70;;;;;;;-2.28;77.42;96757.41;5053883;28;20469;-72
2021/01/19 06:12:38;;;;;;;10.82;5.85;;;;;;;-2.27;77.20;96751.34;5038251;28;20041;-71
2021/01/19 06:15:06;;;;;;;15.65;6.25;;;;;;;-2.30;76.90;96748.22;5053409;28;20049;-71
2021/01/19 06:17:32;;;;;;;11.60;5.95;;;;;;;-2.32;76.81;96750.09;5053420;28;20041;-72
2021/01/19 06:20:00;;;;;;;14.82;6.03;;;;;;;-2.32;76.98;96734.69;5046263;28;21291;-72
2021/01/19 06:22:28;;;;;;;11.65;6.13;;;;;;;-2.34;76.83;96744.28;5050662;28;20080;-71
2021/01/19 06:24:56;;;;;;;10.63;6.32;;;;;;;-2.39;76.64;96736.13;5069415;28;20132;-72
2021/01/19 06:27:22;;;;;;;10.90;6.65;;;;;;;-2.47;76.38;96737.59;5072604;28;20048;-71
2021/01/19 06:29:58;;;;;;;9.57;5.78;;;;;;;-2.56;76.56;96733.25;5073815;28;20397;-71
2021/01/19 06:32:25;;;;;;;12.40;6.45;;;;;;;-2.62;76.58;96723.50;5073754;28;20040;-71
2021/01/19 06:34:51;;;;;;;14.20;6.80;;;;;;;-2.66;76.85;96732.41;5073494;28;20418;-71
2021/01/19 06:37:26;;;;;;;12.23;6.78;;;;;;;-2.71;76.59;96721.69;5073433;28;20400;-72
2021/01/19 06:39:57;;;;;;;10.68;6.38;;;;;;;-2.69;77.10;96730.06;5067397;28;20041;-71
2021/01/19 06:42:31;;;;;;;11.30;6.63;;;;;;;-2.72;76.86;96727.78;5073998;28;20029;-73
2021/01/19 06:45:04;;;;;;;11.65;6.13;;;;;;;-2.75;76.63;96721.16;5074772;28;20029;-71
2021/01/19 06:47:41;;;;;;;11.55;6.70;;;;;;;-2.80;76.55;96725.84;5073899;28;20044;-71
2021/01/19 06:50:08;;;;;;;13.50;6.65;;;;;;;-2.80;76.97;96713.00;5074164;28;20388;-71
2021/01/19 06:52:42;;;;;;;12.18;6.35;;;;;;;-2.76;77.01;96711.00;5072989;28;20036;-71
2021/01/19 06:55:20;;;;;;;10.10;5.85;;;;;;;-2.78;76.73;96705.97;5073882;28;20052;-71
2021/01/19 06:58:10;;;;;;;11.00;6.15;;;;;;;-2.79;76.96;96703.53;5060977;28;20044;-71
2021/01/19 07:00:39;;;;;;;11.27;6.20;;;;;;;-2.78;77.13;96695.72;5072863;28;20048;-72
2021/01/19 07:03:20;;;;;;;11.52;7.18;;;;;;;-2.81;76.55;96695.16;5073396;28;20048;-71
2021/01/19 07:05:55;;;;;;;10.77;6.30;;;;;;;-2.80;76.98;96689.09;5072579;28;20040;-71
2021/01/19 07:08:21;;;;;;;12.80;6.82;;;;;;;-2.77;76.80;96688.81;5072921;28;20043;-71
2021/01/19 07:11:00;;;;;;;11.70;6.45;;;;;;;-2.77;77.05;96687.09;5069121;28;20032;-71
2021/01/19 07:13:26;;;;;;;12.10;6.65;;;;;;;-2.73;76.84;96678.19;5072858;28;20036;-71
2021/01/19 07:15:58;;;;;;;13.40;7.15;;;;;;;-2.71;76.99;96685.75;5073121;28;20051;-71
2021/01/19 07:18:49;;;;;;;11.75;6.60;;;;;;;-2.62;76.79;96691.88;5073537;28;20043;-71
2021/01/19 07:21:17;;;;;;;12.30;6.82;;;;;;;-2.57;77.05;96682.03;5070190;28;20047;-71
2021/01/19 07:23:46;;;;;;;13.82;6.97;;;;;;;-2.56;76.63;96683.63;5053997;28;20132;-71
2021/01/19 07:26:17;;;;;;;12.48;6.32;;;;;;;-2.57;76.50;96685.41;5052484;28;20045;-71
2021/01/19 07:28:45;;;;;;;11.07;6.50;;;;;;;-2.57;76.57;96674.31;5052190;28;20547;-71
2021/01/19 07:31:12;;;;;;;11.13;6.45;;;;;;;-2.52;76.62;96685.00;5052058;28;20052;-71
2021/01/19 07:33:42;;;;;;;9.10;5.78;;;;;;;-2.45;76.55;96683.56;5052899;28;20037;-74
2021/01/19 07:36:15;;;;;;;12.82;6.47;;;;;;;-2.40;76.16;96680.59;5043139;28;20049;-71
2021/01/19 07:38:41;;;;;;;13.48;6.50;;;;;;;-2.36;76.37;96675.06;5052774;28;20053;-71
2021/01/19 07:41:08;;;;;;;14.77;6.82;;;;;;;-2.32;76.52;96678.19;5052959;28;20044;-71
2021/01/19 07:43:36;;;;;;;12.45;7.13;;;;;;;-2.26;76.15;96678.47;5052013;28;20044;-71
2021/01/19 07:46:04;;;;;;;14.45;6.80;;;;;;;-2.23;75.89;96681.72;5047294;28;20049;-71
2021/01/19 07:48:31;;;;;;;13.52;6.78;;;;;;;-2.15;75.74;96648.47;5034448;28;20029;-72
2021/01/19 07:51:13;;;;;;;16.30;7.07;;;;;;;-2.16;75.12;96654.53;5051830;28;20040;-72
2021/01/19 07:53:51;;;;;;;11.10;7.53;;;;;;;-2.10;75.17;96644.56;5051694;28;20048;-71
2021/01/19 07:56:27;;;;;;;11.82;7.28;;;;;;;-2.08;74.97;96649.53;5053274;28;20044;-71
2021/01/19 07:58:54;;;;;;;11.15;6.65;;;;;;;-2.02;75.12;96648.19;5032308;28;20045;-71
2021/01/19 08:01:34;;;;;;;13.18;6.85;;;;;;;-2.01;74.96;96648.06;5046935;28;20068;-71
2021/01/19 08:04:10;;;;;;;10.90;7.10;;;;;;;-1.93;74.75;96637.09;5046953;28;20053;-71
2021/01/19 08:06:38;;;;;;;12.57;7.13;;;;;;;-1.89;75.11;96641.88;5051989;28;20053;-71
2021/01/19 08:09:15;;;;;;;13.45;7.80;;;;;;;-1.83;74.18;96635.34;5047107;28;20485;-71
2021/01/19 08:11:44;;;;;;;15.07;7.70;;;;;;;-1.75;74.99;96625.19;5052636;28;20037;-71
2021/01/19 08:14:10;;;;;;;12.27;7.38;;;;;;;-1.66;74.45;96623.56;5041054;28;20045;-72
2021/01/19 08:16:41;;;;;;;14.02;7.05;;;;;;;-1.56;74.65;96621.81;5045702;28;20044;-71
2021/01/19 08:19:10;;;;;;;12.45;7.38;;;;;;;-1.53;74.21;96611.25;5054504;28;20037;-71
2021/01/19 08:21:46;;;;;;;12.73;8.13;;;;;;;-1.40;74.59;96613.53;5055608;28;20056;-72
2021/01/19 08:24:13;;;;;;;11.45;7.00;;;;;;;-1.23;74.60;96607.66;5056544;28;20511;-71
2021/01/19 08:26:39;;;;;;;13.07;8.13;;;;;;;-1.17;73.97;96603.72;5051344;28;20060;-71
2021/01/19 08:29:06;;;;;;;13.45;7.43;;;;;;;-1.01;74.20;96603.09;5050528;28;20523;-72
2021/01/19 08:31:36;;;;;;;14.85;8.07;;;;;;;-0.76;73.34;96598.25;5051770;28;20052;-71
2021/01/19 08:34:05;;;;;;;11.18;7.40;;;;;;;-0.59;73.58;96587.19;5054563;28;20474;-71
2021/01/19 08:36:33;;;;;;;11.95;7.53;;;;;;;-0.62;72.83;96583.13;5056502;28;20482;-72
2021/01/19 08:39:01;;;;;;;14.35;8.07;;;;;;;-0.67;72.85;96585.34;5055436;28;20040;-71
2021/01/19 08:41:28;;;;;;;15.50;8.35;;;;;;;-0.92;72.41;96591.97;5055254;28;20044;-71
2021/01/19 08:44:00;;;;;;;14.02;7.65;;;;;;;-1.10;72.66;96589.31;5055964;28;20060;-71
2021/01/19 08:46:30;;;;;;;11.10;7.47;;;;;;;-1.15;72.88;96593.28;5050351;28;20037;-71
2021/01/19 08:49:01;;;;;;;12.00;8.27;;;;;;;-1.24;72.73;96590.59;5054134;28;20053;-72
2021/01/19 08:51:27;;;;;;;18.48;8.63;;;;;;;-1.30;73.08;96592.91;5054758;28;20041;-71
2021/01/19 08:53:54;;;;;;;14.90;7.75;;;;;;;-1.39;73.27;96586.03;5055773;28;20048;-71
2021/01/19 08:56:23;;;;;;;15.20;8.13;;;;;;;-1.45;73.50;96588.22;5052175;28;20052;-71
2021/01/19 08:58:50;;;;;;;17.00;7.97;;;;;;;-1.47;73.57;96582.41;5048056;28;20053;-72
2021/01/19 09:01:18;;;;;;;16.80;9.05;;;;;;;-1.39;74.05;96584.28;5053571;28;20036;-71
2021/01/19 09:03:54;;;;;;;13.30;8.15;;;;;;;-1.32;73.87;96589.69;5051932;28;20045;-71
2021/01/19 09:06:22;;;;;;;15.50;7.93;;;;;;;-1.27;74.30;96590.88;5054982;28;20533;-71
2021/01/19 09:08:56;;;;;;;16.88;8.93;;;;;;;-1.25;73.96;96593.31;5056039;28;20032;-71
2021/01/19 09:11:31;;;;;;;14.90;8.85;;;;;;;-1.19;73.97;96581.66;5054515;28;20033;-71
2021/01/19 09:14:02;;;;;;;12.77;8.00;;;;;;;-1.15;74.04;96580.44;5054804;28;20045;-71
2021/01/19 09:16:31;;;;;;;14.00;9.15;;;;;;;-1.15;73.99;96583.81;5051932;28;20045;-72
2021/01/19 09:18:59;;;;;;;16.25;9.00;;;;;;;-1.12;73.97;96600.72;5045730;28;20052;-71
2021/01/19 09:21:26;;;;;;;15.52;8.68;;;;;;;-1.07;74.30;96595.94;5050114;28;20400;-71
2021/01/19 09:23:53;;;;;;;13.60;8.20;;;;;;;-1.04;73.92;96603.41;5054908;28;20409;-71
2021/01/19 09:26:20;;;;;;;17.60;8.65;;;;;;;-1.05;73.76;96583.75;5050477;28;20418;-72
2021/01/19 09:28:47;;;;;;;15.13;9.50;;;;;;;-1.09;73.86;96579.84;5055907;28;20033;-71
2021/01/19 09:31:21;;;;;;;16.02;8.48;;;;;;;-1.08;73.83;96577.13;5054677;28;20490;-71
2021/01/19 09:33:51;;;;;;;15.63;8.50;;;;;;;-1.09;73.85;96570.38;5053172;28;20056;-72
2021/01/19 09:36:18;;;;;;;17.55;9.48;;;;;;;-1.02;73.99;96570.59;5045957;28;20053;-72
2021/01/19 09:38:51;;;;;;;15.18;8.88;;;;;;;-1.03;73.61;96558.69;5054355;28;20167;-71
2021/01/19 09:41:26;;;;;;;17.00;10.18;;;;;;;-1.04;73.84;96562.22;5049976;28;20132;-71
2021/01/19 09:43:55;;;;;;;17.95;9.50;;;;;;;-1.09;73.75;96554.94;5037248;28;20040;-71
2021/01/19 09:46:24;;;;;;;15.55;9.02;;;;;;;-1.09;74.09;96551.53;5054062;28;20041;-71
2021/01/19 09:48:54;;;;;;;16.10;9.00;;;;;;;-1.09;74.07;96542.06;5051899;28;20040;-71
2021/01/19 09:51:29;;;;;;;13.90;8.57;;;;;;;-1.04;73.89;96541.63;5055131;28;20040;-71
2021/01/19 09:53:59;;;;;;;15.40;8.60;;;;;;;-0.99;74.02;96541.19;5054031;28;20045;-71
2021/01/19 09:56:27;;;;;;;17.58;9.20;;;;;;;-0.99;73.93;96530.91;5053554;28;20047;-71
2021/01/19 09:59:02;;;;;;;14.88;8.98;;;;;;;-0.94;74.20;96523.56;5053603;28;20048;-71
2021/01/19 10:01:29;;;;;;;21.23;10.07;;;;;;;-0.90;74.09;96530.84;5054543;28;20037;-72
2021/01/19 10:03:56;;;;;;;15.77;9.07;;;;;;;-0.88;73.70;96515.28;5055229;28;20045;-71
2021/01/19 10:06:25;;;;;;;17.88;9.23;;;;;;;-0.92;74.07;96508.78;5054008;28;20465;-71
2021/01/19 10:08:53;;;;;;;17.10;10.25;;;;;;;-0.93;73.97;96502.81;5053674;28;20056;-71
2021/01/19 10:11:33;;;;;;;17.13;9.85;;;;;;;-0.86;74.38;96501.28;5053956;28;20037;-71
2021/01/19 10:14:14;;;;;;;18.58;9.65;;;;;;;-0.73;74.33;96492.41;5053649;28;20405;-71
2021/01/19 10:16:48;;;;;;;19.38;9.32;;;;;;;-0.69;74.12;96488.59;5055055;28;20040;-71
2021/01/19 10:19:22;;;;;;;18.08;8.55;;;;;;;-0.67;73.95;96482.34;5054616;28;20025;-71
2021/01/19 10:21:52;;;;;;;17.38;6.47;;;;;;;-0.66;73.92;96471.06;5035773;28;20045;-72
2021/01/19 10:24:18;;;;;;;15.55;7.82;;;;;;;-0.66;73.79;96470.25;5049514;28;20045;-71
2021/01/19 10:27:10;;;;;;;13.68;7.53;;;;;;;-0.59;73.78;96470.47;5048517;28;20049;-71
2021/01/19 10:29:44;;;;;;;15.40;8.50;;;;;;;-0.55;73.86;96459.72;5054631;28;20385;-72
2021/01/19 10:32:13;;;;;;;19.08;8.57;;;;;;;-0.47;73.83;96452.06;5049511;28;20041;-71
2021/01/19 10:34:47;;;;;;;16.95;8.32;;;;;;;-0.41;73.39;96448.91;5052696;28;20056;-71
2021/01/19 10:37:15;;;;;;;16.67;8.88;;;;;;;-0.31;73.64;96448.03;5052806;28;20045;-71
2021/01/19 10:39:59;;;;;;;16.50;8.32;;;;;;;-0.23;73.44;96448.09;5049459;28;20045;-71
2021/01/19 10:42:26;;;;;;;;;;;;;;;-0.18;73.01;96440.69;5053557;28;20041;-71
2021/01/19 10:44:57;;;;;;;17.27;7.80;;;;;;;-0.14;72.95;96436.88;5049218;28;19916;-72
2021/01/19 10:47:25;;;;;;;15.45;8.23;;;;;;;-0.09;73.19;96437.22;5036022;28;20040;-72
2021/01/19 10:49:51;;;;;;;11.77;7.53;;;;;;;-0.01;73.40;96436.47;5054099;28;20044;-71
2021/01/19 10:52:18;;;;;;;16.45;8.35;;;;;;;0.06;73.08;96432.31;5053228;28;20412;-72
2021/01/19 10:54:44;;;;;;;20.35;8.13;;;;;;;0.14;73.33;96434.13;5043085;28;20043;-72
2021/01/19 10:57:11;;;;;;;15.50;8.48;;;;;;;0.14;72.83;96419.47;5052100;28;20049;-71
2021/01/19 10:59:37;;;;;;;14.93;7.53;;;;;;;0.17;72.72;96424.31;5049140;28;20061;-72
2021/01/19 11:02:04;;;;;;;14.43;7.15;;;;;;;0.19;72.88;96417.25;5032964;28;20041;-73
2021/01/19 11:04:31;;;;;;;12.75;7.60;;;;;;;0.22;72.81;96413.53;5053174;28;20041;-71
2021/01/19 11:07:00;;;;;;;14.82;7.57;;;;;;;0.29;72.84;96414.53;5044707;28;20496;-72
2021/01/19 11:09:26;;;;;;;14.30;7.72;;;;;;;0.34;72.92;96402.00;5052236;28;20051;-71
2021/01/19 11:11:53;;;;;;;12.70;7.63;;;;;;;0.36;72.77;96394.13;5035374;28;20041;-71
2021/01/19 11:14:19;;;;;;;13.70;8.18;;;;;;;0.37;72.48;96393.94;5052860;28;20037;-71
2021/01/19 11:16:45;;;;;;;13.48;8.48;;;;;;;0.32;72.25;96379.91;5043767;28;20116;-71
2021/01/19 11:19:13;;;;;;;12.63;8.30;;;;;;;0.25;72.36;96376.31;5045442;28;20047;-72
2021/01/19 11:21:41;;;;;;;16.33;9.75;;;;;;;0.29;72.45;96380.19;5047908;28;20044;-71
2021/01/19 11:24:10;;;;;;;15.95;10.15;;;;;;;0.29;72.65;96383.59;5053532;28;20052;-71
2021/01/19 11:26:38;;;;;;;17.05;9.52;;;;;;;0.25;72.35;96364.22;5052541;28;20409;-71
2021/01/19 11:29:07;;;;;;;15.02;9.63;;;;;;;0.26;72.65;96377.94;5049914;28;20036;-72
2021/01/19 11:31:34;;;;;;;19.10;12.35;;;;;;;0.24;72.48;96372.13;5049981;28;20057;-71
2021/01/19 11:34:09;;;;;;;20.70;11.55;;;;;;;0.26;72.56;96378.75;5050925;28;20036;-71
2021/01/19 11:36:38;;;;;;;19.17;9.13;;;;;;;0.30;72.69;96367.16;5053706;28;20040;-72
2021/01/19 11:39:07;;;;;;;20.25;9.45;;;;;;;0.37;72.37;96368.13;5052166;28;20060;-71
2021/01/19 11:41:35;;;;;;;12.40;8.70;;;;;;;0.42;72.46;96365.13;5047383;28;20469;-71